createdAt,value
2019-02-20T00:00:15.658Z,997.09
2019-02-20T00:01:15.623Z,997.07
2019-02-20T00:02:15.614Z,997.04
2019-02-20T00:03:15.609Z,997.05
2019-02-20T00:04:15.600Z,997.06
2019-02-20T00:05:15.589Z,997.09
2019-02-20T00:06:15.583Z,997.05
2019-02-20T00:07:15.573Z,997.07
2019-02-20T00:08:15.559Z,997.09
2019-02-20T00:09:15.554Z,997.08
2019-02-20T00:10:15.570Z,997.07
2019-02-20T00:11:15.536Z,997.06
2019-02-20T00:12:15.526Z,997.09
2019-02-20T00:13:15.520Z,997.09
2019-02-20T00:14:15.518Z,997.11
2019-02-20T00:15:15.507Z,997.12
2019-02-20T00:16:15.494Z,997.1
2019-02-20T00:17:15.484Z,997.13
2019-02-20T00:18:15.476Z,997.11
2019-02-20T00:19:15.470Z,997.1
2019-02-20T00:20:15.491Z,997.14
2019-02-20T00:21:15.456Z,997.14
2019-02-20T00:22:15.443Z,997.11
2019-02-20T00:23:15.434Z,997.09
2019-02-20T00:24:15.428Z,997.09
2019-02-20T00:25:15.445Z,997.11
2019-02-20T00:26:15.409Z,997.09
2019-02-20T00:27:15.417Z,997.1
2019-02-20T00:28:15.395Z,997.1
2019-02-20T00:29:15.390Z,997.13
2019-02-20T00:30:15.437Z,997.09
2019-02-20T00:31:15.370Z,997.09
2019-02-20T00:32:15.367Z,997.14
2019-02-20T00:33:15.349Z,997.14
2019-02-20T00:34:15.342Z,997.14
2019-02-20T00:35:15.342Z,997.19
2019-02-20T00:36:15.324Z,997.14
2019-02-20T00:37:15.318Z,997.16
2019-02-20T00:38:15.327Z,997.17
2019-02-20T00:39:15.301Z,997.19
2019-02-20T00:40:15.295Z,997.11
2019-02-20T00:41:15.282Z,997.18
2019-02-20T00:42:15.273Z,997.15
2019-02-20T00:43:15.264Z,997.14
2019-02-20T00:44:15.256Z,997.14
2019-02-20T00:45:15.247Z,997.15
2019-02-20T00:46:15.236Z,997.15
2019-02-20T00:47:15.230Z,997.16
2019-02-20T00:48:15.225Z,997.15
2019-02-20T00:49:15.212Z,997.2
2019-02-20T00:50:15.266Z,997.15
2019-02-20T00:51:15.192Z,997.18
2019-02-20T00:52:15.193Z,997.22
2019-02-20T00:53:15.181Z,997.27
2019-02-20T00:54:15.170Z,997.3
2019-02-20T00:55:15.187Z,997.29
2019-02-20T00:56:15.146Z,997.31
2019-02-20T00:57:15.141Z,997.34
2019-02-20T00:58:15.126Z,997.3
2019-02-20T00:59:16.851Z,997.34
2019-02-20T01:00:15.179Z,997.36
2019-02-20T01:01:15.101Z,997.34
2019-02-20T01:02:15.092Z,997.44
2019-02-20T01:03:15.082Z,997.4
2019-02-20T01:04:15.074Z,997.43
2019-02-20T01:05:15.063Z,997.41
2019-02-20T01:06:15.054Z,997.39
2019-02-20T01:07:15.048Z,997.4
2019-02-20T01:08:15.042Z,997.36
2019-02-20T01:09:15.026Z,997.4
2019-02-20T01:10:15.111Z,997.39
2019-02-20T01:11:15.020Z,997.39
2019-02-20T01:12:14.995Z,997.39
2019-02-20T01:13:14.986Z,997.4
2019-02-20T01:14:14.976Z,997.38
2019-02-20T01:15:15.056Z,997.39
2019-02-20T01:16:14.959Z,997.38
2019-02-20T01:17:14.951Z,997.4
2019-02-20T01:18:14.959Z,997.4
2019-02-20T01:19:14.928Z,997.4
2019-02-20T01:20:15.000Z,997.42
2019-02-20T01:21:14.911Z,997.39
2019-02-20T01:22:14.907Z,997.4
2019-02-20T01:23:14.896Z,997.43
2019-02-20T01:24:14.885Z,997.4
2019-02-20T01:25:14.968Z,997.38
2019-02-20T01:26:14.872Z,997.4
2019-02-20T01:27:14.856Z,997.38
2019-02-20T01:28:14.842Z,997.39
2019-02-20T01:29:14.833Z,997.38
2019-02-20T01:30:14.834Z,997.37
2019-02-20T01:31:14.816Z,997.39
2019-02-20T01:32:14.809Z,997.4
2019-02-20T01:33:16.532Z,997.36
2019-02-20T01:34:14.783Z,997.36
2019-02-20T01:35:14.842Z,997.43
2019-02-20T01:36:14.767Z,997.41
2019-02-20T01:37:14.753Z,997.38
2019-02-20T01:38:14.753Z,997.41
2019-02-20T01:39:14.733Z,997.44
2019-02-20T01:40:14.766Z,997.37
2019-02-20T01:41:14.713Z,997.39
2019-02-20T01:42:14.704Z,997.41
2019-02-20T01:43:14.697Z,997.4
2019-02-20T01:44:14.691Z,997.4
2019-02-20T01:45:14.674Z,997.35
2019-02-20T01:46:14.667Z,997.3
2019-02-20T01:47:14.654Z,997.33
2019-02-20T01:48:14.645Z,997.3
2019-02-20T01:49:14.643Z,997.27
2019-02-20T01:50:14.746Z,997.3
2019-02-20T01:51:14.634Z,997.28
2019-02-20T01:52:14.613Z,997.28
2019-02-20T01:53:14.599Z,997.25
2019-02-20T01:54:14.596Z,997.3
2019-02-20T01:55:14.610Z,997.28
2019-02-20T01:56:14.566Z,997.23
2019-02-20T01:57:14.554Z,997.26
2019-02-20T01:58:14.553Z,997.28
2019-02-20T01:59:14.539Z,997.31
2019-02-20T02:00:14.525Z,997.27
2019-02-20T02:01:14.520Z,997.31
2019-02-20T02:02:14.519Z,997.27
2019-02-20T02:03:14.497Z,997.29
2019-02-20T02:04:14.484Z,997.27
2019-02-20T02:05:15.566Z,997.3
2019-02-20T02:06:14.464Z,997.3
2019-02-20T02:07:14.461Z,997.26
2019-02-20T02:08:14.443Z,997.25
2019-02-20T02:09:14.432Z,997.21
2019-02-20T02:10:14.490Z,997.25
2019-02-20T02:11:14.412Z,997.23
2019-02-20T02:12:14.405Z,997.29
2019-02-20T02:13:14.405Z,997.24
2019-02-20T02:14:14.388Z,997.26
2019-02-20T02:15:20.402Z,997.22
2019-02-20T02:16:14.370Z,997.21
2019-02-20T02:17:14.356Z,997.24
2019-02-20T02:18:14.342Z,997.25
2019-02-20T02:19:14.336Z,997.26
2019-02-20T02:20:14.325Z,997.28
2019-02-20T02:21:14.373Z,997.29
2019-02-20T02:22:14.378Z,997.3
2019-02-20T02:23:19.784Z,997.34
2019-02-20T02:24:14.283Z,997.34
2019-02-20T02:25:14.273Z,997.32
2019-02-20T02:26:14.266Z,997.38
2019-02-20T02:27:14.248Z,997.37
2019-02-20T02:28:14.241Z,997.37
2019-02-20T02:29:14.228Z,997.37
2019-02-20T02:30:14.269Z,997.38
2019-02-20T02:31:14.210Z,997.38
2019-02-20T02:32:14.211Z,997.41
2019-02-20T02:33:14.190Z,997.42
2019-02-20T02:34:14.196Z,997.37
2019-02-20T02:35:14.165Z,997.39
2019-02-20T02:36:14.166Z,997.4
2019-02-20T02:37:14.147Z,997.37
2019-02-20T02:38:14.134Z,997.33
2019-02-20T02:39:14.125Z,997.33
2019-02-20T02:40:14.123Z,997.3
2019-02-20T02:41:14.106Z,997.29
2019-02-20T02:42:14.095Z,997.29
2019-02-20T02:43:14.085Z,997.29
2019-02-20T02:44:14.074Z,997.33
2019-02-20T02:45:14.066Z,997.28
2019-02-20T02:46:14.051Z,997.28
2019-02-20T02:47:14.043Z,997.2
2019-02-20T02:48:14.040Z,997.21
2019-02-20T02:49:14.047Z,997.2
2019-02-20T02:50:14.097Z,997.16
2019-02-20T02:51:13.999Z,997.18
2019-02-20T02:52:13.990Z,997.16
2019-02-20T02:53:13.982Z,997.11
2019-02-20T02:54:13.978Z,997.1
2019-02-20T02:55:13.977Z,997.13
2019-02-20T02:56:13.958Z,997.11
2019-02-20T02:57:13.937Z,997.11
2019-02-20T02:58:13.929Z,997.15
2019-02-20T02:59:13.916Z,997.13
2019-02-20T03:00:13.911Z,997.17
2019-02-20T03:01:13.900Z,997.17
2019-02-20T03:02:13.893Z,997.15
2019-02-20T03:03:13.885Z,997.15
2019-02-20T03:04:13.868Z,997.18
2019-02-20T03:05:13.857Z,997.12
2019-02-20T03:06:13.844Z,997.11
2019-02-20T03:07:13.834Z,997.14
2019-02-20T03:08:13.823Z,997.14
2019-02-20T03:09:13.815Z,997.2
2019-02-20T03:10:13.801Z,997.24
2019-02-20T03:11:13.790Z,997.23
2019-02-20T03:12:13.783Z,997.21
2019-02-20T03:13:13.782Z,997.17
2019-02-20T03:14:13.759Z,997.23
2019-02-20T03:15:13.751Z,997.21
2019-02-20T03:16:13.736Z,997.23
2019-02-20T03:17:13.728Z,997.22
2019-02-20T03:18:13.720Z,997.23
2019-02-20T03:19:13.716Z,997.2
2019-02-20T03:20:13.755Z,997.23
2019-02-20T03:21:13.688Z,997.21
2019-02-20T03:22:13.679Z,997.17
2019-02-20T03:23:13.666Z,997.19
2019-02-20T03:24:13.662Z,997.19
2019-02-20T03:25:13.671Z,997.16
2019-02-20T03:26:13.644Z,997.14
2019-02-20T03:27:13.621Z,997.17
2019-02-20T03:28:13.609Z,997.16
2019-02-20T03:29:13.601Z,997.16
2019-02-20T03:30:13.589Z,997.15
2019-02-20T03:31:13.582Z,997.19
2019-02-20T03:32:13.574Z,997.16
2019-02-20T03:33:13.569Z,997.2
2019-02-20T03:34:13.560Z,997.19
2019-02-20T03:35:13.558Z,997.17
2019-02-20T03:36:13.527Z,997.15
2019-02-20T03:37:13.513Z,997.12
2019-02-20T03:38:13.519Z,997.1
2019-02-20T03:39:13.501Z,997.1
2019-02-20T03:40:13.487Z,997.13
2019-02-20T03:41:13.471Z,997.1
2019-02-20T03:42:13.464Z,997.1
2019-02-20T03:43:13.451Z,997.12
2019-02-20T03:44:13.440Z,997.12
2019-02-20T03:45:13.434Z,997.12
2019-02-20T03:46:13.431Z,997.18
2019-02-20T03:47:13.410Z,997.17
2019-02-20T03:48:13.402Z,997.14
2019-02-20T03:49:13.390Z,997.13
2019-02-20T03:50:13.380Z,997.14
2019-02-20T03:51:13.372Z,997.16
2019-02-20T03:52:13.363Z,997.13
2019-02-20T03:53:13.354Z,997.14
2019-02-20T03:54:13.337Z,997.13
2019-02-20T03:55:13.404Z,997.17
2019-02-20T03:56:13.314Z,997.15
2019-02-20T03:57:13.303Z,997.2
2019-02-20T03:58:13.291Z,997.14
2019-02-20T03:59:13.289Z,997.14
2019-02-20T04:00:13.274Z,997.16
2019-02-20T04:01:13.260Z,997.15
2019-02-20T04:02:13.251Z,997.15
2019-02-20T04:03:13.239Z,997.12
2019-02-20T04:04:13.239Z,997.16
2019-02-20T04:05:13.226Z,997.15
2019-02-20T04:06:13.231Z,997.21
2019-02-20T04:07:13.204Z,997.21
2019-02-20T04:08:13.192Z,997.2
2019-02-20T04:09:13.194Z,997.24
2019-02-20T04:10:13.206Z,997.22
2019-02-20T04:11:13.171Z,997.25
2019-02-20T04:12:13.152Z,997.22
2019-02-20T04:13:13.137Z,997.24
2019-02-20T04:14:13.132Z,997.24
2019-02-20T04:15:13.129Z,997.23
2019-02-20T04:16:13.125Z,997.25
2019-02-20T04:17:13.101Z,997.25
2019-02-20T04:18:13.094Z,997.29
2019-02-20T04:19:13.089Z,997.29
2019-02-20T04:20:13.064Z,997.29
2019-02-20T04:21:13.055Z,997.33
2019-02-20T04:22:13.053Z,997.31
2019-02-20T04:23:13.052Z,997.35
2019-02-20T04:24:13.017Z,997.37
2019-02-20T04:25:13.010Z,997.35
2019-02-20T04:26:13.002Z,997.4
2019-02-20T04:27:12.989Z,997.38
2019-02-20T04:28:12.992Z,997.37
2019-02-20T04:29:12.963Z,997.38
2019-02-20T04:30:12.950Z,997.37
2019-02-20T04:31:12.943Z,997.34
2019-02-20T04:32:12.945Z,997.37
2019-02-20T04:33:12.918Z,997.32
2019-02-20T04:34:12.910Z,997.39
2019-02-20T04:35:12.900Z,997.32
2019-02-20T04:36:12.888Z,997.34
2019-02-20T04:37:12.875Z,997.38
2019-02-20T04:38:12.867Z,997.38
2019-02-20T04:39:12.870Z,997.39
2019-02-20T04:40:12.844Z,997.43
2019-02-20T04:41:12.879Z,997.42
2019-02-20T04:42:12.822Z,997.45
2019-02-20T04:43:12.819Z,997.46
2019-02-20T04:44:12.802Z,997.43
2019-02-20T04:45:12.789Z,997.48
2019-02-20T04:46:12.779Z,997.45
2019-02-20T04:47:12.769Z,997.48
2019-02-20T04:48:12.841Z,997.46
2019-02-20T04:49:12.751Z,997.44
2019-02-20T04:50:12.740Z,997.42
2019-02-20T04:51:12.732Z,997.4
2019-02-20T04:52:12.716Z,997.42
2019-02-20T04:53:12.707Z,997.35
2019-02-20T04:54:13.799Z,997.43
2019-02-20T04:55:12.692Z,997.41
2019-02-20T04:56:12.681Z,997.45
2019-02-20T04:57:12.666Z,997.41
2019-02-20T04:58:12.653Z,997.45
2019-02-20T04:59:12.644Z,997.42
2019-02-20T05:00:12.636Z,997.39
2019-02-20T05:01:12.622Z,997.38
2019-02-20T05:02:12.640Z,997.37
2019-02-20T05:03:12.599Z,997.39
2019-02-20T05:04:12.597Z,997.39
2019-02-20T05:05:12.583Z,997.35
2019-02-20T05:06:12.569Z,997.41
2019-02-20T05:07:12.560Z,997.42
2019-02-20T05:08:12.562Z,997.38
2019-02-20T05:09:12.540Z,997.44
2019-02-20T05:10:12.533Z,997.38
2019-02-20T05:11:12.526Z,997.42
2019-02-20T05:12:12.511Z,997.39
2019-02-20T05:13:12.508Z,997.39
2019-02-20T05:14:12.491Z,997.39
2019-02-20T05:15:12.481Z,997.39
2019-02-20T05:16:12.470Z,997.4
2019-02-20T05:17:12.474Z,997.4
2019-02-20T05:18:12.459Z,997.37
2019-02-20T05:19:12.439Z,997.34
2019-02-20T05:20:12.436Z,997.36
2019-02-20T05:21:12.719Z,997.31
2019-02-20T05:22:12.450Z,997.29
2019-02-20T05:23:12.407Z,997.34
2019-02-20T05:24:12.390Z,997.35
2019-02-20T05:25:12.385Z,997.3
2019-02-20T05:26:12.401Z,997.35
2019-02-20T05:27:12.359Z,997.36
2019-02-20T05:28:12.361Z,997.37
2019-02-20T05:29:12.354Z,997.42
2019-02-20T05:30:12.336Z,997.41
2019-02-20T05:31:12.317Z,997.46
2019-02-20T05:32:12.308Z,997.47
2019-02-20T05:33:12.297Z,997.42
2019-02-20T05:34:12.293Z,997.49
2019-02-20T05:35:12.278Z,997.48
2019-02-20T05:36:12.269Z,997.49
2019-02-20T05:37:12.258Z,997.49
2019-02-20T05:38:12.252Z,997.49
2019-02-20T05:39:12.249Z,997.5
2019-02-20T05:40:12.235Z,997.5
2019-02-20T05:41:12.227Z,997.46
2019-02-20T05:42:12.231Z,997.5
2019-02-20T05:43:12.206Z,997.52
2019-02-20T05:44:12.188Z,997.49
2019-02-20T05:45:12.182Z,997.51
2019-02-20T05:46:12.180Z,997.51
2019-02-20T05:47:12.160Z,997.52
2019-02-20T05:48:12.152Z,997.52
2019-02-20T05:49:12.151Z,997.49
2019-02-20T05:50:12.139Z,997.49
2019-02-20T05:51:12.125Z,997.47
2019-02-20T05:52:12.120Z,997.44
2019-02-20T05:53:12.104Z,997.43
2019-02-20T05:54:12.097Z,997.42
2019-02-20T05:55:12.095Z,997.43
2019-02-20T05:56:12.076Z,997.4
2019-02-20T05:57:12.074Z,997.4
2019-02-20T05:58:12.064Z,997.4
2019-02-20T05:59:12.082Z,997.4
2019-02-20T06:00:12.082Z,997.35
2019-02-20T06:01:12.035Z,997.38
2019-02-20T06:02:12.023Z,997.38
2019-02-20T06:03:12.022Z,997.41
2019-02-20T06:04:12.000Z,997.43
2019-02-20T06:05:11.999Z,997.42
2019-02-20T06:06:11.980Z,997.43
2019-02-20T06:07:11.981Z,997.46
2019-02-20T06:08:11.963Z,997.46
2019-02-20T06:09:11.951Z,997.47
2019-02-20T06:10:11.943Z,997.49
2019-02-20T06:11:14.597Z,997.48
2019-02-20T06:12:11.924Z,997.49
2019-02-20T06:13:11.914Z,997.48
2019-02-20T06:14:11.903Z,997.51
2019-02-20T06:15:11.897Z,997.57
2019-02-20T06:16:11.885Z,997.59
2019-02-20T06:17:11.874Z,997.61
2019-02-20T06:18:11.868Z,997.57
2019-02-20T06:19:11.856Z,997.63
2019-02-20T06:20:11.894Z,997.67
2019-02-20T06:21:11.840Z,997.69
2019-02-20T06:22:11.831Z,997.72
2019-02-20T06:23:11.825Z,997.71
2019-02-20T06:24:11.812Z,997.69
2019-02-20T06:25:11.809Z,997.7
2019-02-20T06:26:11.796Z,997.73
2019-02-20T06:27:11.787Z,997.73
2019-02-20T06:28:11.773Z,997.76
2019-02-20T06:29:11.770Z,997.75
2019-02-20T06:30:11.761Z,997.77
2019-02-20T06:31:11.740Z,997.82
2019-02-20T06:32:11.731Z,997.85
2019-02-20T06:33:11.744Z,997.78
2019-02-20T06:34:11.711Z,997.84
2019-02-20T06:35:11.701Z,997.87
2019-02-20T06:36:11.690Z,997.83
2019-02-20T06:37:11.694Z,997.89
2019-02-20T06:38:11.878Z,997.9
2019-02-20T06:39:11.660Z,997.92
2019-02-20T06:40:11.654Z,997.93
2019-02-20T06:41:11.656Z,997.96
2019-02-20T06:42:11.668Z,997.91
2019-02-20T06:43:11.621Z,997.93
2019-02-20T06:44:11.609Z,997.97
2019-02-20T06:45:11.606Z,997.97
2019-02-20T06:46:11.592Z,998.01
2019-02-20T06:47:11.590Z,998.03
2019-02-20T06:48:11.569Z,998.06
2019-02-20T06:49:11.562Z,998.06
2019-02-20T06:50:11.550Z,998.05
2019-02-20T06:51:11.558Z,998.1
2019-02-20T06:52:11.532Z,998.07
2019-02-20T06:53:11.540Z,998.09
2019-02-20T06:54:11.519Z,998.1
2019-02-20T06:55:11.502Z,998.09
2019-02-20T06:56:11.491Z,998.12
2019-02-20T06:57:11.495Z,998.09
2019-02-20T06:58:11.503Z,998.11
2019-02-20T06:59:11.522Z,998.1
2019-02-20T07:00:11.464Z,998.06
2019-02-20T07:01:11.443Z,998.15
2019-02-20T07:02:11.431Z,998.11
2019-02-20T07:03:11.423Z,998.1
2019-02-20T07:04:11.414Z,998.11
2019-02-20T07:05:11.405Z,998.13
2019-02-20T07:06:11.396Z,998.16
2019-02-20T07:07:11.386Z,998.2
2019-02-20T07:08:11.376Z,998.2
2019-02-20T07:09:11.367Z,998.2
2019-02-20T07:10:11.356Z,998.26
2019-02-20T07:11:11.347Z,998.28
2019-02-20T07:12:11.337Z,998.29
2019-02-20T07:13:11.326Z,998.29
2019-02-20T07:14:11.318Z,998.28
2019-02-20T07:15:11.311Z,998.31
2019-02-20T07:16:11.297Z,998.3
2019-02-20T07:17:11.290Z,998.34
2019-02-20T07:18:11.280Z,998.34
2019-02-20T07:19:11.289Z,998.32
2019-02-20T07:20:11.268Z,998.35
2019-02-20T07:21:11.253Z,998.33
2019-02-20T07:22:11.241Z,998.4
2019-02-20T07:23:11.233Z,998.42
2019-02-20T07:24:11.230Z,998.42
2019-02-20T07:25:11.213Z,998.44
2019-02-20T07:26:11.218Z,998.41
2019-02-20T07:27:11.195Z,998.43
2019-02-20T07:28:11.185Z,998.43
2019-02-20T07:29:11.179Z,998.47
2019-02-20T07:30:11.168Z,998.47
2019-02-20T07:31:11.164Z,998.46
2019-02-20T07:32:11.161Z,998.47
2019-02-20T07:33:11.144Z,998.41
2019-02-20T07:34:11.131Z,998.42
2019-02-20T07:35:11.121Z,998.41
2019-02-20T07:36:11.116Z,998.4
2019-02-20T07:37:11.105Z,998.39
2019-02-20T07:38:11.096Z,998.4
2019-02-20T07:39:11.097Z,998.37
2019-02-20T07:40:11.078Z,998.38
2019-02-20T07:41:11.069Z,998.4
2019-02-20T07:42:11.065Z,998.39
2019-02-20T07:43:11.055Z,998.4
2019-02-20T07:44:11.051Z,998.39
2019-02-20T07:45:11.044Z,998.46
2019-02-20T07:46:11.027Z,998.41
2019-02-20T07:47:11.076Z,998.44
2019-02-20T07:48:11.019Z,998.48
2019-02-20T07:49:11.006Z,998.45
2019-02-20T07:50:10.994Z,998.42
2019-02-20T07:51:10.987Z,998.46
2019-02-20T07:52:10.980Z,998.48
2019-02-20T07:53:10.969Z,998.49
2019-02-20T07:54:10.961Z,998.51
2019-02-20T07:55:13.451Z,998.53
2019-02-20T07:56:10.943Z,998.55
2019-02-20T07:57:10.938Z,998.58
2019-02-20T07:58:10.932Z,998.57
2019-02-20T07:59:10.927Z,998.58
2019-02-20T08:00:10.918Z,998.54
2019-02-20T08:01:10.915Z,998.55
2019-02-20T08:02:10.898Z,998.53
2019-02-20T08:03:10.895Z,998.51
2019-02-20T08:04:10.884Z,998.52
2019-02-20T08:05:10.873Z,998.46
2019-02-20T08:06:10.863Z,998.45
2019-02-20T08:07:10.867Z,998.52
2019-02-20T08:08:10.849Z,998.5
2019-02-20T08:09:10.838Z,998.51
2019-02-20T08:10:10.836Z,998.54
2019-02-20T08:11:10.856Z,998.54
2019-02-20T08:12:10.816Z,998.59
2019-02-20T08:13:10.809Z,998.62
2019-02-20T08:14:10.808Z,998.61
2019-02-20T08:15:10.794Z,998.61
2019-02-20T08:16:10.825Z,998.61
2019-02-20T08:17:10.787Z,998.59
2019-02-20T08:18:10.770Z,998.57
2019-02-20T08:19:10.767Z,998.6
2019-02-20T08:20:10.759Z,998.58
2019-02-20T08:21:10.750Z,998.58
2019-02-20T08:22:11.550Z,998.56
2019-02-20T08:23:10.736Z,998.63
2019-02-20T08:24:10.738Z,998.62
2019-02-20T08:25:10.720Z,998.64
2019-02-20T08:26:10.713Z,998.65
2019-02-20T08:27:10.709Z,998.64
2019-02-20T08:28:10.701Z,998.63
2019-02-20T08:29:10.698Z,998.64
2019-02-20T08:30:10.690Z,998.62
2019-02-20T08:31:10.686Z,998.59
2019-02-20T08:32:10.675Z,998.55
2019-02-20T08:33:10.693Z,998.5
2019-02-20T08:34:10.668Z,998.51
2019-02-20T08:35:10.682Z,998.52
2019-02-20T08:36:10.657Z,998.53
2019-02-20T08:37:10.661Z,998.52
2019-02-20T08:38:10.659Z,998.52
2019-02-20T08:39:10.672Z,998.5
2019-02-20T08:40:10.643Z,998.46
2019-02-20T08:41:10.640Z,998.45
2019-02-20T08:42:10.631Z,998.47
2019-02-20T08:43:10.629Z,998.49
2019-02-20T08:44:10.634Z,998.5
2019-02-20T08:45:10.622Z,998.58
2019-02-20T08:46:10.626Z,998.59
2019-02-20T08:47:10.619Z,998.61
2019-02-20T08:48:10.614Z,998.59
2019-02-20T08:49:10.610Z,998.6
2019-02-20T08:50:10.614Z,998.65
2019-02-20T08:51:10.602Z,998.61
2019-02-20T08:52:10.603Z,998.6
2019-02-20T08:53:10.618Z,998.61
2019-02-20T08:54:10.590Z,998.62
2019-02-20T08:55:10.587Z,998.59
2019-02-20T08:56:10.586Z,998.63
2019-02-20T08:57:10.583Z,998.59
2019-02-20T08:58:10.576Z,998.62
2019-02-20T08:59:10.571Z,998.58
2019-02-20T09:00:10.561Z,998.6
2019-02-20T09:01:10.559Z,998.62
2019-02-20T09:02:10.555Z,998.63
2019-02-20T09:03:10.545Z,998.62
2019-02-20T09:04:10.540Z,998.57
2019-02-20T09:05:10.535Z,998.61
2019-02-20T09:06:10.533Z,998.62
2019-02-20T09:07:10.519Z,998.58
2019-02-20T09:08:10.520Z,998.58
2019-02-20T09:09:10.510Z,998.63
2019-02-20T09:10:10.505Z,998.6
2019-02-20T09:11:10.499Z,998.63
2019-02-20T09:12:10.499Z,998.65
2019-02-20T09:13:10.487Z,998.65
2019-02-20T09:14:10.477Z,998.62
2019-02-20T09:15:10.476Z,998.64
2019-02-20T09:16:10.479Z,998.63
2019-02-20T09:17:10.460Z,998.61
2019-02-20T09:18:10.454Z,998.57
2019-02-20T09:19:10.448Z,998.54
2019-02-20T09:20:10.443Z,998.56
2019-02-20T09:21:10.436Z,998.59
2019-02-20T09:22:10.434Z,998.6
2019-02-20T09:23:10.436Z,998.63
2019-02-20T09:24:10.418Z,998.66
2019-02-20T09:25:19.157Z,998.61
2019-02-20T09:26:10.403Z,998.61
2019-02-20T09:27:10.403Z,998.64
2019-02-20T09:28:10.395Z,998.59
2019-02-20T09:29:10.383Z,998.58
2019-02-20T09:30:10.384Z,998.54
2019-02-20T09:31:10.383Z,998.57
2019-02-20T09:32:10.371Z,998.58
2019-02-20T09:33:10.358Z,998.54
2019-02-20T09:34:10.361Z,998.54
2019-02-20T09:35:10.392Z,998.57
2019-02-20T09:36:10.353Z,998.61
2019-02-20T09:37:10.335Z,998.58
2019-02-20T09:38:10.616Z,998.63
2019-02-20T09:39:10.321Z,998.63
2019-02-20T09:40:10.327Z,998.59
2019-02-20T09:41:10.307Z,998.63
2019-02-20T09:42:10.305Z,998.65
2019-02-20T09:43:10.302Z,998.62
2019-02-20T09:44:10.289Z,998.68
2019-02-20T09:45:10.284Z,998.67
2019-02-20T09:46:10.297Z,998.72
2019-02-20T09:47:10.284Z,998.72
2019-02-20T09:48:10.267Z,998.73
2019-02-20T09:49:10.261Z,998.74
2019-02-20T09:50:10.252Z,998.76
2019-02-20T09:51:10.250Z,998.78
2019-02-20T09:52:10.246Z,998.76
2019-02-20T09:53:10.237Z,998.78
2019-02-20T09:54:10.230Z,998.82
2019-02-20T09:55:10.228Z,998.8
2019-02-20T09:56:10.226Z,998.78
2019-02-20T09:57:10.214Z,998.76
2019-02-20T09:58:10.209Z,998.74
2019-02-20T09:59:10.204Z,998.77
2019-02-20T10:00:10.206Z,998.78
2019-02-20T10:01:10.204Z,998.76
2019-02-20T10:02:10.187Z,998.76
2019-02-20T10:03:10.202Z,998.75
2019-02-20T10:04:10.175Z,998.8
2019-02-20T10:05:10.180Z,998.77
2019-02-20T10:06:10.175Z,998.84
2019-02-20T10:07:10.161Z,998.82
2019-02-20T10:08:10.154Z,998.81
2019-02-20T10:09:10.150Z,998.83
2019-02-20T10:10:10.146Z,998.85
2019-02-20T10:11:10.138Z,998.85
2019-02-20T10:12:10.137Z,998.89
2019-02-20T10:13:11.565Z,998.89
2019-02-20T10:14:10.129Z,998.91
2019-02-20T10:15:10.136Z,998.9
2019-02-20T10:16:10.121Z,998.91
2019-02-20T10:17:10.112Z,998.92
2019-02-20T10:18:12.021Z,998.93
2019-02-20T10:19:10.097Z,998.89
2019-02-20T10:20:10.095Z,998.93
2019-02-20T10:21:10.088Z,998.91
2019-02-20T10:22:10.082Z,998.91
2019-02-20T10:23:10.079Z,998.95
2019-02-20T10:24:10.074Z,998.96
2019-02-20T10:25:10.074Z,998.98
2019-02-20T10:26:10.071Z,998.95
2019-02-20T10:27:10.063Z,998.93
2019-02-20T10:28:10.064Z,998.94
2019-02-20T10:29:10.056Z,998.94
2019-02-20T10:30:10.105Z,998.9
2019-02-20T10:31:10.045Z,998.95
2019-02-20T10:32:10.036Z,998.94
2019-02-20T10:33:10.051Z,998.94
2019-02-20T10:34:11.214Z,998.96
2019-02-20T10:35:10.025Z,998.95
2019-02-20T10:36:10.019Z,998.92
2019-02-20T10:37:10.019Z,998.97
2019-02-20T10:38:10.009Z,998.97
2019-02-20T10:39:10.006Z,999.01
2019-02-20T10:40:10.000Z,999
2019-02-20T10:41:09.996Z,999
2019-02-20T10:42:09.989Z,999
2019-02-20T10:43:09.994Z,998.96
2019-02-20T10:44:09.994Z,998.97
2019-02-20T10:45:09.978Z,998.96
2019-02-20T10:46:09.975Z,998.92
2019-02-20T10:47:09.971Z,998.95
2019-02-20T10:48:09.968Z,998.92
2019-02-20T10:49:09.962Z,998.96
2019-02-20T10:50:09.967Z,999
2019-02-20T10:51:09.954Z,998.96
2019-02-20T10:52:09.949Z,998.97
2019-02-20T10:53:09.943Z,999
2019-02-20T10:54:09.941Z,998.95
2019-02-20T10:55:09.939Z,998.97
2019-02-20T10:56:09.951Z,998.98
2019-02-20T10:57:09.934Z,998.98
2019-02-20T10:58:09.930Z,998.99
2019-02-20T10:59:09.918Z,998.97
2019-02-20T11:00:09.920Z,998.94
2019-02-20T11:01:09.913Z,998.99
2019-02-20T11:02:09.919Z,998.94
2019-02-20T11:03:09.906Z,998.96
2019-02-20T11:04:09.902Z,998.94
2019-02-20T11:05:09.913Z,998.97
2019-02-20T11:06:09.888Z,999
2019-02-20T11:07:09.896Z,998.97
2019-02-20T11:08:09.883Z,998.97
2019-02-20T11:09:09.879Z,998.95
2019-02-20T11:10:09.877Z,998.98
2019-02-20T11:11:09.870Z,998.96
2019-02-20T11:12:09.868Z,998.91
2019-02-20T11:13:09.877Z,998.92
2019-02-20T11:14:09.861Z,998.92
2019-02-20T11:15:09.858Z,998.92
2019-02-20T11:16:09.856Z,998.91
2019-02-20T11:17:09.849Z,998.91
2019-02-20T11:18:09.856Z,998.92
2019-02-20T11:19:09.852Z,998.89
2019-02-20T11:20:09.840Z,998.9
2019-02-20T11:21:09.838Z,998.88
2019-02-20T11:22:09.833Z,998.88
2019-02-20T11:23:09.836Z,998.9
2019-02-20T11:24:09.826Z,998.9
2019-02-20T11:25:09.825Z,998.89
2019-02-20T11:26:17.513Z,998.88
2019-02-20T11:27:09.821Z,998.86
2019-02-20T11:28:09.815Z,998.85
2019-02-20T11:29:09.811Z,998.84
2019-02-20T11:30:09.809Z,998.85
2019-02-20T11:31:09.804Z,998.87
2019-02-20T11:32:09.802Z,998.86
2019-02-20T11:33:09.802Z,998.89
2019-02-20T11:34:09.798Z,998.86
2019-02-20T11:35:09.797Z,998.87
2019-02-20T11:36:09.792Z,998.9
2019-02-20T11:37:09.790Z,998.88
2019-02-20T11:38:09.788Z,998.89
2019-02-20T11:39:11.553Z,998.88
2019-02-20T11:40:09.788Z,998.88
2019-02-20T11:41:09.792Z,998.9
2019-02-20T11:42:09.777Z,998.88
2019-02-20T11:43:09.772Z,998.86
2019-02-20T11:44:09.773Z,998.82
2019-02-20T11:45:09.769Z,998.81
2019-02-20T11:46:09.760Z,998.86
2019-02-20T11:47:09.762Z,998.81
2019-02-20T11:48:09.755Z,998.83
2019-02-20T11:49:09.754Z,998.83
2019-02-20T11:50:09.757Z,998.83
2019-02-20T11:51:09.756Z,998.8
2019-02-20T11:52:09.757Z,998.81
2019-02-20T11:53:09.747Z,998.8
2019-02-20T11:54:09.746Z,998.84
2019-02-20T11:55:09.797Z,998.82
2019-02-20T11:56:09.774Z,998.84
2019-02-20T11:57:09.736Z,998.84
2019-02-20T11:58:09.738Z,998.82
2019-02-20T11:59:09.732Z,998.84
2019-02-20T12:00:09.729Z,998.85
2019-02-20T12:01:09.726Z,998.86
2019-02-20T12:02:09.722Z,998.87
2019-02-20T12:03:09.741Z,998.83
2019-02-20T12:04:09.718Z,998.87
2019-02-20T12:05:09.712Z,998.87
2019-02-20T12:06:09.711Z,998.86
2019-02-20T12:07:09.708Z,998.91
2019-02-20T12:08:09.703Z,998.89
2019-02-20T12:09:09.702Z,998.88
2019-02-20T12:10:09.698Z,998.9
2019-02-20T12:11:09.697Z,998.86
2019-02-20T12:12:09.692Z,998.89
2019-02-20T12:13:09.689Z,998.9
2019-02-20T12:14:09.688Z,998.93
2019-02-20T12:15:09.683Z,998.93
2019-02-20T12:16:09.682Z,998.92
2019-02-20T12:17:09.678Z,998.91
2019-02-20T12:18:17.120Z,998.91
2019-02-20T12:19:09.678Z,998.93
2019-02-20T12:20:09.673Z,998.93
2019-02-20T12:21:09.667Z,998.87
2019-02-20T12:22:09.671Z,998.93
2019-02-20T12:23:09.661Z,998.91
2019-02-20T12:24:09.675Z,998.91
2019-02-20T12:25:09.653Z,998.87
2019-02-20T12:26:09.664Z,998.86
2019-02-20T12:27:09.647Z,998.89
2019-02-20T12:28:09.644Z,998.85
2019-02-20T12:29:11.188Z,998.87
2019-02-20T12:30:09.651Z,998.85
2019-02-20T12:31:09.635Z,998.85